KMEH

Meacham Airport

Meacham, Oregon, USA
METAR KMEH 172056Z AUTO 00000KT 10SM OVC022 01/M01 A3009 RMK AO2 SLP224 T00111011 58015
Observed Flight Rules
Dec-17 @ 20:56 UTC (19 minutes ago) Marginal Visual Flight Rules
Wind Visibility Clouds
Calm 10 miles
  • Overcast at 2,200' AGL
Temperatures Readings
Current 1°C / 34°F
Dewpoint -1°C / 30°F
Humidity 87%
Altimeter 30.09" Hg
Pressure 1022.4 hPa
Elevation 1136
METAR KMEH 172056Z AUTO 00000KT 10SM OVC022 01/M01 A3009 RMK AO2 SLP224 T00111011 58015
Observed Flight Rules
Dec-17 @ 20:56 UTC
(19 minutes ago)
MVFR
Wind Visibility
Calm 10 miles
Clouds
  • Overcast at 2,200' AGL
Temperature Dewpoint
1°C / 34°F -1°C / 30°F
Humidity Altimeter Pressure
87% 30.09" Hg 1022.4 hPa